sensor_id;sensor_type;location;lat;lon;timestamp;P1;durP1;ratioP1;P2;durP2;ratioP2
23388;SDS011;11867;51.198;11.966;2023-02-28T00:00:11;8.65;;;5.55;;
23388;SDS011;11867;51.198;11.966;2023-02-28T00:01:15;7.00;;;5.13;;
23388;SDS011;11867;51.198;11.966;2023-02-28T00:02:17;7.95;;;5.15;;
23388;SDS011;11867;51.198;11.966;2023-02-28T00:03:20;7.47;;;5.68;;
23388;SDS011;11867;51.198;11.966;2023-02-28T00:04:22;9.13;;;5.63;;
23388;SDS011;11867;51.198;11.966;2023-02-28T00:05:24;7.18;;;4.95;;
23388;SDS011;11867;51.198;11.966;2023-02-28T00:06:28;6.25;;;5.47;;
23388;SDS011;11867;51.198;11.966;2023-02-28T00:07:30;9.68;;;5.40;;
23388;SDS011;11867;51.198;11.966;2023-02-28T00:08:33;9.85;;;5.97;;
23388;SDS011;11867;51.198;11.966;2023-02-28T00:09:34;10.00;;;5.95;;
23388;SDS011;11867;51.198;11.966;2023-02-28T00:10:38;8.70;;;5.65;;
23388;SDS011;11867;51.198;11.966;2023-02-28T00:11:39;8.35;;;5.90;;
23388;SDS011;11867;51.198;11.966;2023-02-28T00:12:43;7.15;;;5.43;;
23388;SDS011;11867;51.198;11.966;2023-02-28T00:13:46;6.82;;;4.97;;
23388;SDS011;11867;51.198;11.966;2023-02-28T00:14:49;6.22;;;5.00;;
23388;SDS011;11867;51.198;11.966;2023-02-28T00:15:58;7.38;;;4.90;;
23388;SDS011;11867;51.198;11.966;2023-02-28T00:17:02;6.88;;;4.72;;
23388;SDS011;11867;51.198;11.966;2023-02-28T00:18:03;10.25;;;4.88;;
23388;SDS011;11867;51.198;11.966;2023-02-28T00:19:07;7.13;;;5.18;;
23388;SDS011;11867;51.198;11.966;2023-02-28T00:20:09;6.53;;;5.13;;
23388;SDS011;11867;51.198;11.966;2023-02-28T00:21:14;7.13;;;5.43;;
23388;SDS011;11867;51.198;11.966;2023-02-28T00:22:17;6.75;;;5.15;;
23388;SDS011;11867;51.198;11.966;2023-02-28T00:23:20;9.75;;;6.03;;
23388;SDS011;11867;51.198;11.966;2023-02-28T00:24:21;6.95;;;5.60;;
23388;SDS011;11867;51.198;11.966;2023-02-28T00:25:24;8.57;;;5.93;;
23388;SDS011;11867;51.198;11.966;2023-02-28T00:26:26;6.63;;;5.43;;
23388;SDS011;11867;51.198;11.966;2023-02-28T00:27:29;7.80;;;5.30;;
23388;SDS011;11867;51.198;11.966;2023-02-28T00:28:32;7.85;;;5.30;;
23388;SDS011;11867;51.198;11.966;2023-02-28T00:29:35;11.90;;;6.15;;
23388;SDS011;11867;51.198;11.966;2023-02-28T00:30:36;10.70;;;5.18;;
23388;SDS011;11867;51.198;11.966;2023-02-28T00:31:39;6.78;;;5.35;;
23388;SDS011;11867;51.198;11.966;2023-02-28T00:32:40;9.00;;;5.72;;
23388;SDS011;11867;51.198;11.966;2023-02-28T00:33:43;7.32;;;5.05;;
23388;SDS011;11867;51.198;11.966;2023-02-28T00:34:44;10.48;;;5.63;;
23388;SDS011;11867;51.198;11.966;2023-02-28T00:35:47;6.93;;;5.35;;
23388;SDS011;11867;51.198;11.966;2023-02-28T00:36:50;5.90;;;4.90;;
23388;SDS011;11867;51.198;11.966;2023-02-28T00:37:52;7.20;;;5.13;;
23388;SDS011;11867;51.198;11.966;2023-02-28T00:38:54;8.95;;;5.80;;
23388;SDS011;11867;51.198;11.966;2023-02-28T00:39:56;7.32;;;5.10;;
23388;SDS011;11867;51.198;11.966;2023-02-28T00:40:59;11.90;;;5.30;;
23388;SDS011;11867;51.198;11.966;2023-02-28T00:42:06;7.45;;;5.20;;
23388;SDS011;11867;51.198;11.966;2023-02-28T00:43:08;6.65;;;5.25;;
23388;SDS011;11867;51.198;11.966;2023-02-28T00:44:12;5.18;;;4.68;;
23388;SDS011;11867;51.198;11.966;2023-02-28T00:45:14;7.20;;;5.38;;
23388;SDS011;11867;51.198;11.966;2023-02-28T00:46:16;7.00;;;4.95;;
23388;SDS011;11867;51.198;11.966;2023-02-28T00:47:18;7.20;;;5.63;;
23388;SDS011;11867;51.198;11.966;2023-02-28T00:48:21;8.27;;;5.00;;
23388;SDS011;11867;51.198;11.966;2023-02-28T00:49:22;6.90;;;5.00;;
23388;SDS011;11867;51.198;11.966;2023-02-28T00:50:25;6.97;;;5.10;;
23388;SDS011;11867;51.198;11.966;2023-02-28T00:51:27;7.05;;;5.18;;
23388;SDS011;11867;51.198;11.966;2023-02-28T00:52:30;9.23;;;5.47;;
23388;SDS011;11867;51.198;11.966;2023-02-28T00:53:32;8.85;;;5.43;;
23388;SDS011;11867;51.198;11.966;2023-02-28T00:54:34;8.82;;;5.60;;
23388;SDS011;11867;51.198;11.966;2023-02-28T00:55:36;7.95;;;5.63;;
23388;SDS011;11867;51.198;11.966;2023-02-28T00:56:39;7.20;;;5.55;;
23388;SDS011;11867;51.198;11.966;2023-02-28T00:57:40;6.85;;;5.25;;
23388;SDS011;11867;51.198;11.966;2023-02-28T00:58:43;8.43;;;5.40;;
23388;SDS011;11867;51.198;11.966;2023-02-28T00:59:45;7.47;;;5.15;;
23388;SDS011;11867;51.198;11.966;2023-02-28T01:00:48;8.45;;;5.22;;
23388;SDS011;11867;51.198;11.966;2023-02-28T01:01:50;6.53;;;4.95;;
23388;SDS011;11867;51.198;11.966;2023-02-28T01:02:53;7.43;;;5.70;;
23388;SDS011;11867;51.198;11.966;2023-02-28T01:03:55;7.22;;;5.53;;
23388;SDS011;11867;51.198;11.966;2023-02-28T01:04:57;9.48;;;5.28;;
23388;SDS011;11867;51.198;11.966;2023-02-28T01:06:00;10.52;;;5.15;;
23388;SDS011;11867;51.198;11.966;2023-02-28T01:07:02;5.93;;;4.30;;
23388;SDS011;11867;51.198;11.966;2023-02-28T01:08:04;6.72;;;5.15;;
23388;SDS011;11867;51.198;11.966;2023-02-28T01:09:07;7.25;;;5.32;;
23388;SDS011;11867;51.198;11.966;2023-02-28T01:10:10;6.63;;;4.60;;
23388;SDS011;11867;51.198;11.966;2023-02-28T01:11:14;6.50;;;5.20;;
23388;SDS011;11867;51.198;11.966;2023-02-28T01:12:17;9.52;;;5.15;;
23388;SDS011;11867;51.198;11.966;2023-02-28T01:13:20;7.50;;;5.35;;
23388;SDS011;11867;51.198;11.966;2023-02-28T01:14:24;8.60;;;5.90;;
23388;SDS011;11867;51.198;11.966;2023-02-28T01:15:28;8.18;;;4.97;;
23388;SDS011;11867;51.198;11.966;2023-02-28T01:16:33;6.57;;;4.68;;
23388;SDS011;11867;51.198;11.966;2023-02-28T01:17:34;8.60;;;4.68;;
23388;SDS011;11867;51.198;11.966;2023-02-28T01:18:39;6.82;;;5.13;;
23388;SDS011;11867;51.198;11.966;2023-02-28T01:19:42;5.68;;;4.28;;
23388;SDS011;11867;51.198;11.966;2023-02-28T01:20:44;6.93;;;4.38;;
23388;SDS011;11867;51.198;11.966;2023-02-28T01:21:47;6.32;;;4.10;;
23388;SDS011;11867;51.198;11.966;2023-02-28T01:22:49;5.30;;;3.88;;
23388;SDS011;11867;51.198;11.966;2023-02-28T01:23:51;5.05;;;3.97;;
23388;SDS011;11867;51.198;11.966;2023-02-28T01:24:53;5.55;;;4.03;;
23388;SDS011;11867;51.198;11.966;2023-02-28T01:25:55;8.35;;;3.75;;
23388;SDS011;11867;51.198;11.966;2023-02-28T01:26:57;7.78;;;3.97;;
23388;SDS011;11867;51.198;11.966;2023-02-28T01:27:59;6.22;;;4.07;;
23388;SDS011;11867;51.198;11.966;2023-02-28T01:29:02;4.63;;;3.50;;
23388;SDS011;11867;51.198;11.966;2023-02-28T01:30:04;4.97;;;3.63;;
23388;SDS011;11867;51.198;11.966;2023-02-28T01:31:09;5.22;;;3.65;;
23388;SDS011;11867;51.198;11.966;2023-02-28T01:32:11;4.93;;;3.40;;
23388;SDS011;11867;51.198;11.966;2023-02-28T01:33:14;6.63;;;3.75;;
23388;SDS011;11867;51.198;11.966;2023-02-28T01:34:16;4.88;;;3.65;;
23388;SDS011;11867;51.198;11.966;2023-02-28T01:35:20;5.80;;;3.75;;
23388;SDS011;11867;51.198;11.966;2023-02-28T01:36:22;5.13;;;3.40;;
23388;SDS011;11867;51.198;11.966;2023-02-28T01:37:26;5.45;;;3.53;;
23388;SDS011;11867;51.198;11.966;2023-02-28T01:38:28;3.72;;;3.17;;
23388;SDS011;11867;51.198;11.966;2023-02-28T01:39:31;3.40;;;3.10;;
23388;SDS011;11867;51.198;11.966;2023-02-28T01:40:33;4.72;;;3.50;;
23388;SDS011;11867;51.198;11.966;2023-02-28T01:41:35;7.43;;;4.07;;
23388;SDS011;11867;51.198;11.966;2023-02-28T01:42:37;7.70;;;3.28;;
23388;SDS011;11867;51.198;11.966;2023-02-28T01:43:52;4.78;;;3.35;;
23388;SDS011;11867;51.198;11.966;2023-02-28T01:45:08;5.75;;;3.72;;
23388;SDS011;11867;51.198;11.966;2023-02-28T01:46:24;4.30;;;3.47;;
23388;SDS011;11867;51.198;11.966;2023-02-28T01:47:27;3.95;;;3.42;;
23388;SDS011;11867;51.198;11.966;2023-02-28T01:48:34;6.10;;;3.38;;
23388;SDS011;11867;51.198;11.966;2023-02-28T01:49:38;4.20;;;3.42;;
23388;SDS011;11867;51.198;11.966;2023-02-28T01:50:42;7.25;;;3.40;;
23388;SDS011;11867;51.198;11.966;2023-02-28T01:51:46;4.50;;;3.58;;
23388;SDS011;11867;51.198;11.966;2023-02-28T01:52:52;4.00;;;2.97;;
23388;SDS011;11867;51.198;11.966;2023-02-28T01:53:58;9.75;;;3.83;;
23388;SDS011;11867;51.198;11.966;2023-02-28T01:55:04;4.10;;;3.20;;
23388;SDS011;11867;51.198;11.966;2023-02-28T01:56:08;6.13;;;3.20;;
23388;SDS011;11867;51.198;11.966;2023-02-28T01:57:13;6.00;;;3.30;;
23388;SDS011;11867;51.198;11.966;2023-02-28T01:58:17;5.55;;;3.55;;
23388;SDS011;11867;51.198;11.966;2023-02-28T01:59:21;6.28;;;3.40;;
23388;SDS011;11867;51.198;11.966;2023-02-28T02:00:27;5.22;;;3.75;;
23388;SDS011;11867;51.198;11.966;2023-02-28T02:01:33;4.97;;;3.03;;
23388;SDS011;11867;51.198;11.966;2023-02-28T02:02:35;4.53;;;3.47;;
23388;SDS011;11867;51.198;11.966;2023-02-28T02:03:39;4.80;;;3.30;;
23388;SDS011;11867;51.198;11.966;2023-02-28T02:04:41;5.57;;;3.22;;
23388;SDS011;11867;51.198;11.966;2023-02-28T02:05:52;8.77;;;3.30;;
23388;SDS011;11867;51.198;11.966;2023-02-28T02:06:53;6.43;;;3.35;;
23388;SDS011;11867;51.198;11.966;2023-02-28T02:07:57;3.45;;;3.15;;
23388;SDS011;11867;51.198;11.966;2023-02-28T02:09:04;3.03;;;2.67;;
23388;SDS011;11867;51.198;11.966;2023-02-28T02:10:11;4.30;;;2.80;;
23388;SDS011;11867;51.198;11.966;2023-02-28T02:11:17;4.93;;;3.20;;
23388;SDS011;11867;51.198;11.966;2023-02-28T02:12:23;3.45;;;2.55;;
23388;SDS011;11867;51.198;11.966;2023-02-28T02:13:38;6.15;;;2.90;;
23388;SDS011;11867;51.198;11.966;2023-02-28T02:14:59;6.72;;;3.05;;
23388;SDS011;11867;51.198;11.966;2023-02-28T02:16:10;4.40;;;2.30;;
23388;SDS011;11867;51.198;11.966;2023-02-28T02:17:26;5.43;;;2.83;;
23388;SDS011;11867;51.198;11.966;2023-02-28T02:18:34;2.70;;;2.17;;
23388;SDS011;11867;51.198;11.966;2023-02-28T02:19:49;5.45;;;2.88;;
23388;SDS011;11867;51.198;11.966;2023-02-28T02:22:53;4.55;;;3.28;;
23388;SDS011;11867;51.198;11.966;2023-02-28T02:24:19;4.07;;;2.65;;
23388;SDS011;11867;51.198;11.966;2023-02-28T02:25:59;5.88;;;2.83;;
23388;SDS011;11867;51.198;11.966;2023-02-28T02:28:56;3.75;;;2.88;;
23388;SDS011;11867;51.198;11.966;2023-02-28T02:30:43;3.45;;;2.58;;
23388;SDS011;11867;51.198;11.966;2023-02-28T02:32:09;2.60;;;1.95;;
23388;SDS011;11867;51.198;11.966;2023-02-28T02:33:35;4.55;;;2.75;;
23388;SDS011;11867;51.198;11.966;2023-02-28T02:34:58;7.68;;;2.70;;
23388;SDS011;11867;51.198;11.966;2023-02-28T02:36:10;4.45;;;2.95;;
23388;SDS011;11867;51.198;11.966;2023-02-28T02:37:24;2.75;;;2.17;;
23388;SDS011;11867;51.198;11.966;2023-02-28T02:38:33;4.05;;;2.40;;
23388;SDS011;11867;51.198;11.966;2023-02-28T02:39:43;5.22;;;2.97;;
23388;SDS011;11867;51.198;11.966;2023-02-28T02:40:54;4.18;;;2.50;;
23388;SDS011;11867;51.198;11.966;2023-02-28T02:42:00;3.90;;;2.72;;
23388;SDS011;11867;51.198;11.966;2023-02-28T02:43:07;6.95;;;2.90;;
23388;SDS011;11867;51.198;11.966;2023-02-28T02:44:18;3.42;;;2.70;;
23388;SDS011;11867;51.198;11.966;2023-02-28T02:45:24;4.25;;;3.03;;
23388;SDS011;11867;51.198;11.966;2023-02-28T02:46:32;5.00;;;2.33;;
23388;SDS011;11867;51.198;11.966;2023-02-28T02:47:35;5.32;;;2.65;;
23388;SDS011;11867;51.198;11.966;2023-02-28T02:48:41;5.28;;;2.90;;
23388;SDS011;11867;51.198;11.966;2023-02-28T02:49:45;5.65;;;2.58;;
23388;SDS011;11867;51.198;11.966;2023-02-28T02:50:54;4.45;;;2.65;;
23388;SDS011;11867;51.198;11.966;2023-02-28T02:51:58;3.65;;;2.85;;
23388;SDS011;11867;51.198;11.966;2023-02-28T02:53:05;4.30;;;2.80;;
23388;SDS011;11867;51.198;11.966;2023-02-28T02:54:11;4.35;;;2.72;;
23388;SDS011;11867;51.198;11.966;2023-02-28T02:55:18;4.90;;;2.67;;
23388;SDS011;11867;51.198;11.966;2023-02-28T02:56:24;4.03;;;2.70;;
23388;SDS011;11867;51.198;11.966;2023-02-28T02:57:31;4.18;;;3.03;;
23388;SDS011;11867;51.198;11.966;2023-02-28T02:58:39;3.47;;;3.08;;
23388;SDS011;11867;51.198;11.966;2023-02-28T02:59:44;4.32;;;2.90;;
23388;SDS011;11867;51.198;11.966;2023-02-28T03:00:47;6.32;;;3.22;;
23388;SDS011;11867;51.198;11.966;2023-02-28T03:01:55;6.45;;;3.08;;
23388;SDS011;11867;51.198;11.966;2023-02-28T03:02:59;6.90;;;3.63;;
23388;SDS011;11867;51.198;11.966;2023-02-28T03:04:12;4.63;;;2.97;;
23388;SDS011;11867;51.198;11.966;2023-02-28T03:05:20;5.90;;;3.15;;
23388;SDS011;11867;51.198;11.966;2023-02-28T03:06:27;6.00;;;2.90;;
23388;SDS011;11867;51.198;11.966;2023-02-28T03:07:28;4.10;;;3.05;;
23388;SDS011;11867;51.198;11.966;2023-02-28T03:08:33;5.30;;;3.17;;
23388;SDS011;11867;51.198;11.966;2023-02-28T03:09:37;6.35;;;3.22;;
23388;SDS011;11867;51.198;11.966;2023-02-28T03:10:40;4.20;;;2.95;;
23388;SDS011;11867;51.198;11.966;2023-02-28T03:11:44;3.83;;;2.92;;
23388;SDS011;11867;51.198;11.966;2023-02-28T03:12:46;5.78;;;3.13;;
23388;SDS011;11867;51.198;11.966;2023-02-28T03:15:25;5.78;;;3.30;;
23388;SDS011;11867;51.198;11.966;2023-02-28T03:16:34;5.43;;;3.20;;
23388;SDS011;11867;51.198;11.966;2023-02-28T03:17:49;4.90;;;3.15;;
23388;SDS011;11867;51.198;11.966;2023-02-28T03:19:18;6.10;;;3.15;;
23388;SDS011;11867;51.198;11.966;2023-02-28T03:20:35;7.60;;;3.28;;
23388;SDS011;11867;51.198;11.966;2023-02-28T03:21:46;3.40;;;2.90;;
23388;SDS011;11867;51.198;11.966;2023-02-28T03:22:58;6.45;;;3.42;;
23388;SDS011;11867;51.198;11.966;2023-02-28T03:24:10;4.07;;;2.83;;
23388;SDS011;11867;51.198;11.966;2023-02-28T03:25:17;5.60;;;3.20;;
23388;SDS011;11867;51.198;11.966;2023-02-28T03:26:23;5.75;;;3.33;;
23388;SDS011;11867;51.198;11.966;2023-02-28T03:27:29;3.70;;;3.00;;
23388;SDS011;11867;51.198;11.966;2023-02-28T03:28:36;4.38;;;2.90;;
23388;SDS011;11867;51.198;11.966;2023-02-28T03:29:47;7.40;;;2.90;;
23388;SDS011;11867;51.198;11.966;2023-02-28T03:30:57;5.47;;;2.40;;
23388;SDS011;11867;51.198;11.966;2023-02-28T03:32:04;5.35;;;3.25;;
23388;SDS011;11867;51.198;11.966;2023-02-28T03:33:16;8.90;;;3.33;;
23388;SDS011;11867;51.198;11.966;2023-02-28T03:34:25;4.30;;;3.20;;
23388;SDS011;11867;51.198;11.966;2023-02-28T03:35:30;4.75;;;3.30;;
23388;SDS011;11867;51.198;11.966;2023-02-28T03:36:37;4.20;;;3.20;;
23388;SDS011;11867;51.198;11.966;2023-02-28T03:37:46;5.75;;;3.50;;
23388;SDS011;11867;51.198;11.966;2023-02-28T03:38:53;6.70;;;3.08;;
23388;SDS011;11867;51.198;11.966;2023-02-28T03:39:59;5.18;;;2.97;;
23388;SDS011;11867;51.198;11.966;2023-02-28T03:41:09;6.60;;;3.53;;
23388;SDS011;11867;51.198;11.966;2023-02-28T03:42:15;6.43;;;3.50;;
23388;SDS011;11867;51.198;11.966;2023-02-28T03:43:22;4.38;;;3.58;;
23388;SDS011;11867;51.198;11.966;2023-02-28T03:44:28;6.00;;;3.60;;
23388;SDS011;11867;51.198;11.966;2023-02-28T03:45:37;4.85;;;3.25;;
23388;SDS011;11867;51.198;11.966;2023-02-28T03:46:41;5.53;;;3.53;;
23388;SDS011;11867;51.198;11.966;2023-02-28T03:47:51;5.65;;;3.72;;
23388;SDS011;11867;51.198;11.966;2023-02-28T03:48:57;5.53;;;3.40;;
23388;SDS011;11867;51.198;11.966;2023-02-28T03:50:05;6.10;;;3.55;;
23388;SDS011;11867;51.198;11.966;2023-02-28T03:51:12;4.55;;;3.33;;
23388;SDS011;11867;51.198;11.966;2023-02-28T03:52:20;5.25;;;3.58;;
23388;SDS011;11867;51.198;11.966;2023-02-28T03:53:30;5.60;;;3.85;;
23388;SDS011;11867;51.198;11.966;2023-02-28T03:54:38;6.70;;;3.78;;
23388;SDS011;11867;51.198;11.966;2023-02-28T03:55:44;6.65;;;3.60;;
23388;SDS011;11867;51.198;11.966;2023-02-28T03:56:51;6.47;;;3.42;;
23388;SDS011;11867;51.198;11.966;2023-02-28T03:57:58;5.45;;;3.90;;
23388;SDS011;11867;51.198;11.966;2023-02-28T03:59:07;6.07;;;3.88;;
23388;SDS011;11867;51.198;11.966;2023-02-28T04:00:16;9.50;;;3.55;;
23388;SDS011;11867;51.198;11.966;2023-02-28T04:01:23;3.83;;;3.40;;
23388;SDS011;11867;51.198;11.966;2023-02-28T04:02:30;6.18;;;3.45;;
23388;SDS011;11867;51.198;11.966;2023-02-28T04:03:32;5.72;;;3.63;;
23388;SDS011;11867;51.198;11.966;2023-02-28T04:04:35;6.05;;;3.45;;
23388;SDS011;11867;51.198;11.966;2023-02-28T04:05:44;5.30;;;3.60;;
23388;SDS011;11867;51.198;11.966;2023-02-28T04:06:52;6.30;;;3.40;;
23388;SDS011;11867;51.198;11.966;2023-02-28T04:08:04;5.35;;;3.60;;
23388;SDS011;11867;51.198;11.966;2023-02-28T04:09:10;6.30;;;3.47;;
23388;SDS011;11867;51.198;11.966;2023-02-28T04:10:12;5.63;;;3.45;;
23388;SDS011;11867;51.198;11.966;2023-02-28T04:11:18;6.30;;;3.45;;
23388;SDS011;11867;51.198;11.966;2023-02-28T04:12:23;6.30;;;3.58;;
23388;SDS011;11867;51.198;11.966;2023-02-28T04:13:26;5.28;;;3.22;;
23388;SDS011;11867;51.198;11.966;2023-02-28T04:14:27;4.72;;;3.35;;
23388;SDS011;11867;51.198;11.966;2023-02-28T04:15:29;5.20;;;3.67;;
23388;SDS011;11867;51.198;11.966;2023-02-28T04:16:32;4.50;;;3.58;;
23388;SDS011;11867;51.198;11.966;2023-02-28T04:17:36;5.00;;;3.42;;
23388;SDS011;11867;51.198;11.966;2023-02-28T04:18:38;6.00;;;3.65;;
23388;SDS011;11867;51.198;11.966;2023-02-28T04:19:41;8.07;;;3.53;;
23388;SDS011;11867;51.198;11.966;2023-02-28T04:20:42;5.43;;;3.90;;
23388;SDS011;11867;51.198;11.966;2023-02-28T04:21:46;6.03;;;3.55;;
23388;SDS011;11867;51.198;11.966;2023-02-28T04:22:50;4.72;;;3.35;;
23388;SDS011;11867;51.198;11.966;2023-02-28T04:23:52;7.70;;;3.38;;
23388;SDS011;11867;51.198;11.966;2023-02-28T04:24:56;6.07;;;4.35;;
23388;SDS011;11867;51.198;11.966;2023-02-28T04:25:57;4.57;;;3.25;;
23388;SDS011;11867;51.198;11.966;2023-02-28T04:27:00;8.55;;;4.35;;
23388;SDS011;11867;51.198;11.966;2023-02-28T04:28:01;7.70;;;4.22;;
23388;SDS011;11867;51.198;11.966;2023-02-28T04:29:05;7.15;;;4.32;;
23388;SDS011;11867;51.198;11.966;2023-02-28T04:30:08;9.18;;;4.57;;
23388;SDS011;11867;51.198;11.966;2023-02-28T04:31:12;8.48;;;4.50;;
23388;SDS011;11867;51.198;11.966;2023-02-28T04:32:13;9.98;;;4.45;;
23388;SDS011;11867;51.198;11.966;2023-02-28T04:33:16;11.55;;;4.60;;
23388;SDS011;11867;51.198;11.966;2023-02-28T04:34:18;9.98;;;4.53;;
23388;SDS011;11867;51.198;11.966;2023-02-28T04:35:22;9.45;;;4.50;;
23388;SDS011;11867;51.198;11.966;2023-02-28T04:36:23;9.20;;;4.63;;
23388;SDS011;11867;51.198;11.966;2023-02-28T04:37:26;5.47;;;3.75;;
23388;SDS011;11867;51.198;11.966;2023-02-28T04:38:30;10.32;;;3.80;;
23388;SDS011;11867;51.198;11.966;2023-02-28T04:39:34;4.88;;;3.63;;
23388;SDS011;11867;51.198;11.966;2023-02-28T04:40:39;9.00;;;3.90;;
23388;SDS011;11867;51.198;11.966;2023-02-28T04:41:41;9.40;;;3.97;;
23388;SDS011;11867;51.198;11.966;2023-02-28T04:42:44;6.93;;;3.95;;
23388;SDS011;11867;51.198;11.966;2023-02-28T04:43:45;10.93;;;4.63;;
23388;SDS011;11867;51.198;11.966;2023-02-28T04:44:48;6.95;;;4.07;;
23388;SDS011;11867;51.198;11.966;2023-02-28T04:45:49;5.25;;;3.53;;
23388;SDS011;11867;51.198;11.966;2023-02-28T04:46:52;6.68;;;3.60;;
23388;SDS011;11867;51.198;11.966;2023-02-28T04:47:54;5.78;;;4.00;;
23388;SDS011;11867;51.198;11.966;2023-02-28T04:48:56;7.18;;;4.15;;
23388;SDS011;11867;51.198;11.966;2023-02-28T04:49:58;6.88;;;4.00;;
23388;SDS011;11867;51.198;11.966;2023-02-28T04:51:00;5.68;;;3.75;;
23388;SDS011;11867;51.198;11.966;2023-02-28T04:52:02;5.82;;;4.00;;
23388;SDS011;11867;51.198;11.966;2023-02-28T04:53:05;7.30;;;3.53;;
23388;SDS011;11867;51.198;11.966;2023-02-28T04:54:06;6.05;;;3.58;;
23388;SDS011;11867;51.198;11.966;2023-02-28T04:55:09;6.97;;;3.72;;
23388;SDS011;11867;51.198;11.966;2023-02-28T04:56:13;7.32;;;4.15;;
23388;SDS011;11867;51.198;11.966;2023-02-28T04:57:16;6.10;;;3.55;;
23388;SDS011;11867;51.198;11.966;2023-02-28T04:58:18;5.95;;;3.40;;
23388;SDS011;11867;51.198;11.966;2023-02-28T04:59:20;5.78;;;3.80;;
23388;SDS011;11867;51.198;11.966;2023-02-28T05:00:22;7.97;;;3.80;;
23388;SDS011;11867;51.198;11.966;2023-02-28T05:01:26;6.32;;;4.07;;
23388;SDS011;11867;51.198;11.966;2023-02-28T05:02:30;7.70;;;4.10;;
23388;SDS011;11867;51.198;11.966;2023-02-28T05:03:32;5.55;;;3.90;;
23388;SDS011;11867;51.198;11.966;2023-02-28T05:04:34;5.53;;;3.55;;
23388;SDS011;11867;51.198;11.966;2023-02-28T05:05:37;7.18;;;3.95;;
23388;SDS011;11867;51.198;11.966;2023-02-28T05:06:38;6.70;;;3.85;;
23388;SDS011;11867;51.198;11.966;2023-02-28T05:07:41;6.10;;;3.92;;
23388;SDS011;11867;51.198;11.966;2023-02-28T05:08:43;6.28;;;3.72;;
23388;SDS011;11867;51.198;11.966;2023-02-28T05:09:45;5.45;;;3.90;;
23388;SDS011;11867;51.198;11.966;2023-02-28T05:10:47;6.18;;;3.97;;
23388;SDS011;11867;51.198;11.966;2023-02-28T05:11:51;7.32;;;3.70;;
23388;SDS011;11867;51.198;11.966;2023-02-28T05:12:53;6.93;;;4.35;;
23388;SDS011;11867;51.198;11.966;2023-02-28T05:13:55;4.82;;;3.33;;
23388;SDS011;11867;51.198;11.966;2023-02-28T05:14:57;6.47;;;3.72;;
23388;SDS011;11867;51.198;11.966;2023-02-28T05:16:00;5.75;;;3.75;;
23388;SDS011;11867;51.198;11.966;2023-02-28T05:17:01;7.43;;;4.10;;
23388;SDS011;11867;51.198;11.966;2023-02-28T05:18:04;5.85;;;4.25;;
23388;SDS011;11867;51.198;11.966;2023-02-28T05:19:05;6.22;;;3.92;;
23388;SDS011;11867;51.198;11.966;2023-02-28T05:20:09;5.88;;;3.92;;
23388;SDS011;11867;51.198;11.966;2023-02-28T05:21:23;7.00;;;4.07;;
23388;SDS011;11867;51.198;11.966;2023-02-28T05:22:29;7.05;;;4.30;;
23388;SDS011;11867;51.198;11.966;2023-02-28T05:23:30;5.50;;;3.63;;
23388;SDS011;11867;51.198;11.966;2023-02-28T05:24:33;7.68;;;4.28;;
23388;SDS011;11867;51.198;11.966;2023-02-28T05:25:35;6.63;;;4.10;;
23388;SDS011;11867;51.198;11.966;2023-02-28T05:26:38;8.23;;;4.50;;
23388;SDS011;11867;51.198;11.966;2023-02-28T05:27:43;7.13;;;3.92;;
23388;SDS011;11867;51.198;11.966;2023-02-28T05:28:45;6.18;;;4.15;;
23388;SDS011;11867;51.198;11.966;2023-02-28T05:29:47;9.23;;;4.25;;
23388;SDS011;11867;51.198;11.966;2023-02-28T05:30:49;7.90;;;3.95;;
23388;SDS011;11867;51.198;11.966;2023-02-28T05:31:51;5.43;;;3.60;;
23388;SDS011;11867;51.198;11.966;2023-02-28T05:32:54;6.70;;;3.92;;
23388;SDS011;11867;51.198;11.966;2023-02-28T05:33:55;5.68;;;4.05;;
23388;SDS011;11867;51.198;11.966;2023-02-28T05:34:58;5.45;;;3.60;;
23388;SDS011;11867;51.198;11.966;2023-02-28T05:35:59;5.90;;;3.88;;
23388;SDS011;11867;51.198;11.966;2023-02-28T05:37:02;7.50;;;4.38;;
23388;SDS011;11867;51.198;11.966;2023-02-28T05:38:04;5.10;;;3.30;;
23388;SDS011;11867;51.198;11.966;2023-02-28T05:39:06;6.93;;;3.97;;
23388;SDS011;11867;51.198;11.966;2023-02-28T05:40:08;7.57;;;4.38;;
23388;SDS011;11867;51.198;11.966;2023-02-28T05:41:12;6.63;;;3.78;;
23388;SDS011;11867;51.198;11.966;2023-02-28T05:42:14;4.63;;;3.55;;
23388;SDS011;11867;51.198;11.966;2023-02-28T05:43:17;6.80;;;4.30;;
23388;SDS011;11867;51.198;11.966;2023-02-28T05:44:19;6.60;;;3.70;;
23388;SDS011;11867;51.198;11.966;2023-02-28T05:45:21;5.38;;;3.88;;
23388;SDS011;11867;51.198;11.966;2023-02-28T05:46:23;7.10;;;4.07;;
23388;SDS011;11867;51.198;11.966;2023-02-28T05:47:25;7.70;;;4.18;;
23388;SDS011;11867;51.198;11.966;2023-02-28T05:48:27;6.70;;;3.90;;
23388;SDS011;11867;51.198;11.966;2023-02-28T05:49:29;7.10;;;4.45;;
23388;SDS011;11867;51.198;11.966;2023-02-28T05:50:31;9.18;;;4.05;;
23388;SDS011;11867;51.198;11.966;2023-02-28T05:51:33;7.75;;;3.95;;
23388;SDS011;11867;51.198;11.966;2023-02-28T05:52:37;6.10;;;4.00;;
23388;SDS011;11867;51.198;11.966;2023-02-28T05:53:40;6.20;;;3.65;;
23388;SDS011;11867;51.198;11.966;2023-02-28T05:54:41;9.20;;;4.18;;
23388;SDS011;11867;51.198;11.966;2023-02-28T05:55:44;9.50;;;4.63;;
23388;SDS011;11867;51.198;11.966;2023-02-28T05:56:45;8.50;;;4.50;;
23388;SDS011;11867;51.198;11.966;2023-02-28T05:57:48;8.00;;;4.60;;
23388;SDS011;11867;51.198;11.966;2023-02-28T05:58:51;9.80;;;4.72;;
23388;SDS011;11867;51.198;11.966;2023-02-28T05:59:53;7.82;;;4.43;;
23388;SDS011;11867;51.198;11.966;2023-02-28T06:00:55;6.10;;;4.15;;
23388;SDS011;11867;51.198;11.966;2023-02-28T06:01:57;8.15;;;4.05;;
23388;SDS011;11867;51.198;11.966;2023-02-28T06:02:59;6.28;;;4.10;;
23388;SDS011;11867;51.198;11.966;2023-02-28T06:04:04;7.30;;;4.05;;
23388;SDS011;11867;51.198;11.966;2023-02-28T06:05:07;6.38;;;3.80;;
23388;SDS011;11867;51.198;11.966;2023-02-28T06:06:13;7.13;;;4.18;;
23388;SDS011;11867;51.198;11.966;2023-02-28T06:07:15;6.15;;;3.72;;
23388;SDS011;11867;51.198;11.966;2023-02-28T06:08:18;6.88;;;4.00;;
23388;SDS011;11867;51.198;11.966;2023-02-28T06:09:20;7.43;;;3.75;;
23388;SDS011;11867;51.198;11.966;2023-02-28T06:10:23;6.38;;;3.72;;
23388;SDS011;11867;51.198;11.966;2023-02-28T06:11:25;7.13;;;4.22;;
23388;SDS011;11867;51.198;11.966;2023-02-28T06:12:29;8.05;;;3.67;;
23388;SDS011;11867;51.198;11.966;2023-02-28T06:13:31;10.60;;;4.00;;
23388;SDS011;11867;51.198;11.966;2023-02-28T06:14:34;6.82;;;4.25;;
23388;SDS011;11867;51.198;11.966;2023-02-28T06:15:37;6.40;;;4.22;;
23388;SDS011;11867;51.198;11.966;2023-02-28T06:16:39;7.20;;;4.28;;
23388;SDS011;11867;51.198;11.966;2023-02-28T06:17:42;5.82;;;4.03;;
23388;SDS011;11867;51.198;11.966;2023-02-28T06:18:44;7.72;;;3.53;;
23388;SDS011;11867;51.198;11.966;2023-02-28T06:19:47;10.63;;;4.50;;
23388;SDS011;11867;51.198;11.966;2023-02-28T06:20:51;7.45;;;4.05;;
23388;SDS011;11867;51.198;11.966;2023-02-28T06:21:55;6.35;;;3.80;;
23388;SDS011;11867;51.198;11.966;2023-02-28T06:22:58;6.10;;;4.03;;
23388;SDS011;11867;51.198;11.966;2023-02-28T06:24:01;9.35;;;3.92;;
23388;SDS011;11867;51.198;11.966;2023-02-28T06:25:05;5.80;;;3.72;;
23388;SDS011;11867;51.198;11.966;2023-02-28T06:26:08;6.97;;;4.28;;
23388;SDS011;11867;51.198;11.966;2023-02-28T06:27:10;8.40;;;4.43;;
23388;SDS011;11867;51.198;11.966;2023-02-28T06:28:12;8.18;;;4.25;;
23388;SDS011;11867;51.198;11.966;2023-02-28T06:29:15;7.90;;;4.15;;